Hlavní strana
METAR-TAF:

METAR-TAF

Letiště :

Homerville, Georgie, Spojené státy americké

zeměpisná šířka: 31-03-21N, zeměpisná délka: 082-46-27W, výška: 57 m

Aktuální stav počasí

Zpráva byla vytvořena před 7 minutami, v 18:55 UTC
Severoseverovýchodní vítr 3 kt
Teplota 12°C
Vlhkost vzduchu 94%
Tlak 1015 hPa
Zataženo ve výšce 600 ft

METAR: KHOE 151855Z 02003KT OVC006 12/11 A2996 RMK AO2

Čas: 14:02 (19:02 UTC)


TAF: chybějící

Stav a předpovědi počasí z více než 4 000 letišť (zprávy METAR a TAF).

Červené a žluté tečky na mapě představují dostupné meteorologické stanice.

Když kurzor umístíte na tečku, zobrazí se název stanice.

Pak kliknutím zobrazíte stav a předpověď počasí.

Chcete-li změnit mapu, kliknutím na zelené tlačítko se znaménkem +mapu přiblížíte, kliknutím na zelené tlačítko se znaménkem – mapu oddálíte a kliknutím na zelené šipky přejdete na sousední mapy.


METAR-TAF: